createdAt,value
2022-10-31T00:01:01.708Z,5.72
2022-10-31T00:03:28.896Z,6.88
2022-10-31T00:05:56.273Z,8.93
2022-10-31T00:08:23.603Z,9.35
2022-10-31T00:10:50.894Z,7.97
2022-10-31T00:13:18.167Z,9.20
2022-10-31T00:15:45.581Z,7.28
2022-10-31T00:18:12.801Z,6.32
2022-10-31T00:20:40.567Z,7.20
2022-10-31T00:23:08.245Z,7.47
2022-10-31T00:25:37.133Z,7.28
2022-10-31T00:28:05.466Z,5.45
2022-10-31T00:30:33.226Z,6.63
2022-10-31T00:33:00.813Z,5.35
2022-10-31T00:35:28.486Z,5.60
2022-10-31T00:37:55.825Z,7.60
2022-10-31T00:40:23.103Z,7.60
2022-10-31T00:42:50.520Z,6.03
2022-10-31T00:45:17.901Z,7.43
2022-10-31T00:47:45.137Z,9.70
2022-10-31T00:50:12.779Z,6.53
2022-10-31T00:52:40.050Z,7.45
2022-10-31T00:55:07.668Z,6.32
2022-10-31T00:57:35.045Z,6.18
2022-10-31T01:00:03.871Z,7.00
2022-10-31T01:02:31.328Z,8.48
2022-10-31T01:04:58.796Z,6.07
2022-10-31T01:07:26.107Z,7.68
2022-10-31T01:09:53.894Z,7.72
2022-10-31T01:12:21.264Z,5.90
2022-10-31T01:14:48.706Z,6.85
2022-10-31T01:17:18.977Z,7.57
2022-10-31T01:19:47.915Z,6.80
2022-10-31T01:22:15.154Z,7.90
2022-10-31T01:24:42.413Z,6.38
2022-10-31T01:27:09.654Z,7.28
2022-10-31T01:29:36.972Z,5.93
2022-10-31T01:32:04.293Z,6.53
2022-10-31T01:34:31.741Z,5.43
2022-10-31T01:36:59.153Z,6.70
2022-10-31T01:39:26.427Z,7.35
2022-10-31T01:41:54.216Z,8.95
2022-10-31T01:44:21.485Z,7.45
2022-10-31T01:46:50.427Z,8.02
2022-10-31T01:49:26.453Z,8.45
2022-10-31T01:51:56.547Z,8.23
2022-10-31T01:54:25.940Z,6.65
2022-10-31T01:56:55.004Z,8.10
2022-10-31T01:59:23.686Z,6.43
2022-10-31T02:01:52.337Z,8.90
2022-10-31T02:04:20.833Z,8.07
2022-10-31T02:06:51.459Z,8.02
2022-10-31T02:09:24.456Z,6.82
2022-10-31T02:11:53.560Z,8.23
2022-10-31T02:14:22.823Z,8.40
2022-10-31T02:16:52.377Z,8.63
2022-10-31T02:19:24.497Z,6.63
2022-10-31T02:21:56.859Z,8.07
2022-10-31T02:24:24.135Z,10.23
2022-10-31T02:26:59.881Z,7.60
2022-10-31T02:29:35.458Z,9.15
2022-10-31T02:32:05.998Z,5.93
2022-10-31T02:34:37.608Z,9.60
2022-10-31T02:37:16.230Z,6.70
2022-10-31T02:39:49.492Z,8.27
2022-10-31T02:42:25.536Z,6.78
2022-10-31T02:44:57.097Z,6.75
2022-10-31T02:47:28.520Z,9.35
2022-10-31T02:50:10.602Z,9.00
2022-10-31T02:52:39.615Z,8.38
2022-10-31T02:55:25.834Z,7.88
2022-10-31T02:58:03.519Z,8.15
2022-10-31T03:00:35.834Z,6.43
2022-10-31T03:03:16.428Z,7.03
2022-10-31T03:05:43.809Z,8.45
2022-10-31T03:08:14.960Z,7.65
2022-10-31T03:10:43.533Z,6.68
2022-10-31T03:13:13.724Z,6.10
2022-10-31T03:15:45.417Z,7.70
2022-10-31T03:18:30.199Z,7.68
2022-10-31T03:20:59.670Z,7.88
2022-10-31T03:23:27.071Z,6.45
2022-10-31T03:25:55.414Z,10.10
2022-10-31T03:28:30.340Z,9.55
2022-10-31T03:30:59.712Z,7.50
2022-10-31T03:33:31.947Z,7.45
2022-10-31T03:36:01.366Z,9.48
2022-10-31T03:38:30.738Z,7.30
2022-10-31T03:40:59.995Z,6.13
2022-10-31T03:43:33.995Z,8.05
2022-10-31T03:46:01.416Z,9.50
2022-10-31T03:48:28.957Z,7.13
2022-10-31T03:51:05.822Z,8.20
2022-10-31T03:53:36.285Z,7.28
2022-10-31T03:56:08.038Z,10.43
2022-10-31T03:58:38.390Z,8.40
2022-10-31T04:01:08.442Z,10.40
2022-10-31T04:03:37.989Z,7.93
2022-10-31T04:06:10.867Z,9.38
2022-10-31T04:08:42.156Z,9.20
2022-10-31T04:11:13.509Z,7.28
2022-10-31T04:13:44.082Z,10.77
2022-10-31T04:16:17.362Z,7.40
2022-10-31T04:18:45.708Z,8.57
2022-10-31T04:21:12.912Z,8.90
2022-10-31T04:23:40.268Z,7.97
2022-10-31T04:26:25.917Z,11.27
2022-10-31T04:28:53.296Z,8.18
2022-10-31T04:31:20.654Z,8.80
2022-10-31T04:33:50.061Z,10.18
2022-10-31T04:36:18.831Z,7.72
2022-10-31T04:38:46.314Z,10.73
2022-10-31T04:41:27.307Z,7.05
2022-10-31T04:44:02.256Z,8.70
2022-10-31T04:46:29.635Z,8.93
2022-10-31T04:48:58.544Z,8.23
2022-10-31T04:51:26.018Z,8.10
2022-10-31T04:53:54.164Z,10.07
2022-10-31T04:56:33.534Z,9.48
2022-10-31T04:59:04.619Z,7.32
2022-10-31T05:01:44.487Z,7.72
2022-10-31T05:04:12.458Z,8.65
2022-10-31T05:06:39.778Z,6.70
2022-10-31T05:09:07.170Z,7.45
2022-10-31T05:11:35.174Z,7.00
2022-10-31T05:14:17.266Z,8.45
2022-10-31T05:17:04.885Z,7.10
2022-10-31T05:19:50.840Z,10.30
2022-10-31T05:22:36.974Z,7.70
2022-10-31T05:25:05.031Z,7.70
2022-10-31T05:27:32.269Z,7.43
2022-10-31T05:32:27.918Z,7.72
2022-10-31T05:35:16.935Z,7.75
2022-10-31T05:38:02.987Z,8.70
2022-10-31T05:40:30.707Z,9.52
2022-10-31T05:42:59.731Z,10.77
2022-10-31T05:45:27.739Z,8.68
2022-10-31T05:48:02.206Z,7.78
2022-10-31T05:51:07.898Z,8.35
2022-10-31T05:53:35.260Z,7.90
2022-10-31T05:56:02.590Z,7.65
2022-10-31T05:58:30.584Z,10.98
2022-10-31T06:01:05.090Z,9.52
2022-10-31T06:03:33.761Z,8.98
2022-10-31T06:06:04.056Z,10.98
2022-10-31T06:08:36.505Z,9.88
2022-10-31T06:11:07.350Z,11.13
2022-10-31T06:13:55.054Z,9.35
2022-10-31T06:16:32.345Z,8.63
2022-10-31T06:19:10.422Z,12.32
2022-10-31T06:21:37.709Z,12.20
2022-10-31T06:24:05.103Z,11.18
2022-10-31T06:27:06.972Z,12.60
2022-10-31T06:29:34.755Z,12.23
2022-10-31T06:32:15.732Z,10.13
2022-10-31T06:34:50.415Z,12.60
2022-10-31T06:37:17.797Z,10.60
2022-10-31T06:39:47.999Z,13.57
2022-10-31T06:42:17.677Z,15.23
2022-10-31T06:44:44.991Z,11.48
2022-10-31T06:47:31.276Z,14.85
2022-10-31T06:50:11.539Z,13.20
2022-10-31T06:52:38.996Z,13.10
2022-10-31T06:55:06.456Z,15.00
2022-10-31T06:57:34.771Z,12.80
2022-10-31T07:00:02.060Z,11.68
2022-10-31T07:02:39.852Z,14.55
2022-10-31T07:05:07.303Z,13.70
2022-10-31T07:07:34.488Z,13.45
2022-10-31T07:10:02.113Z,12.90
2022-10-31T07:12:45.473Z,11.38
2022-10-31T07:15:12.809Z,13.10
2022-10-31T07:17:40.175Z,12.50
2022-10-31T07:20:09.520Z,16.13
2022-10-31T07:22:37.751Z,10.13
2022-10-31T07:25:07.858Z,13.80
2022-10-31T07:27:53.662Z,13.18
2022-10-31T07:30:22.364Z,12.90
2022-10-31T07:32:52.609Z,12.57
2022-10-31T07:35:22.659Z,14.38
2022-10-31T07:37:57.247Z,13.80
2022-10-31T07:40:25.313Z,16.38
2022-10-31T07:42:54.848Z,14.13
2022-10-31T07:45:41.165Z,11.63
2022-10-31T07:48:26.749Z,13.48
2022-10-31T07:51:12.616Z,12.25
2022-10-31T07:54:08.697Z,12.95
2022-10-31T07:56:36.064Z,11.43
2022-10-31T07:59:03.669Z,14.93
2022-10-31T08:01:31.003Z,13.82
2022-10-31T08:04:33.398Z,16.25
2022-10-31T08:07:19.570Z,22.67
2022-10-31T08:09:54.500Z,18.90
2022-10-31T08:12:25.851Z,19.77
2022-10-31T08:14:54.278Z,23.48
2022-10-31T08:17:21.621Z,22.73
2022-10-31T08:19:54.931Z,23.17
2022-10-31T08:22:27.683Z,20.25
2022-10-31T08:24:55.027Z,19.88
2022-10-31T08:27:22.852Z,15.60
2022-10-31T08:29:50.488Z,17.80
2022-10-31T08:32:17.830Z,16.27
2022-10-31T08:35:03.767Z,14.60
2022-10-31T08:37:36.774Z,15.73
2022-10-31T08:40:06.432Z,16.23
2022-10-31T08:42:35.602Z,14.85
2022-10-31T08:45:03.298Z,16.55
2022-10-31T08:47:32.713Z,17.58
2022-10-31T08:50:00.005Z,18.85
2022-10-31T08:52:51.112Z,19.52
2022-10-31T08:55:15.335Z,11.48
2022-10-31T08:58:04.120Z,12.68
2022-10-31T09:00:40.172Z,12.02
2022-10-31T09:05:43.893Z,14.43
2022-10-31T09:08:16.439Z,14.25
2022-10-31T09:10:46.570Z,14.23
2022-10-31T09:13:18.282Z,17.73
2022-10-31T09:16:04.211Z,16.25
2022-10-31T09:18:32.969Z,18.75
2022-10-31T09:21:01.219Z,14.77
2022-10-31T09:23:31.105Z,13.73
2022-10-31T09:26:03.199Z,14.45
2022-10-31T09:28:37.015Z,14.82
2022-10-31T09:31:10.382Z,18.50
2022-10-31T09:33:56.497Z,14.52
2022-10-31T09:36:54.829Z,16.80
2022-10-31T09:39:25.210Z,16.67
2022-10-31T09:42:24.395Z,15.40
2022-10-31T09:44:52.405Z,13.98
2022-10-31T09:47:37.456Z,15.27
2022-10-31T09:50:47.607Z,13.45
2022-10-31T09:53:37.124Z,12.82
2022-10-31T09:56:07.944Z,15.05
2022-10-31T09:58:39.095Z,18.65
2022-10-31T10:01:07.338Z,16.30
2022-10-31T10:03:41.575Z,14.15
2022-10-31T10:06:30.413Z,15.43
2022-10-31T10:09:32.906Z,13.88
2022-10-31T10:12:26.476Z,14.50
2022-10-31T10:15:06.564Z,16.52
2022-10-31T10:17:47.753Z,13.43
2022-10-31T10:20:15.111Z,12.82
2022-10-31T10:22:50.329Z,15.10
2022-10-31T10:25:25.247Z,11.60
2022-10-31T10:28:11.453Z,15.55
2022-10-31T10:30:54.743Z,13.63
2022-10-31T10:33:40.560Z,15.18
2022-10-31T10:36:13.938Z,15.20
2022-10-31T10:38:49.517Z,15.63
2022-10-31T10:41:19.445Z,13.65
2022-10-31T10:46:44.780Z,16.80
2022-10-31T10:49:30.569Z,19.27
2022-10-31T10:55:09.002Z,13.07
2022-10-31T10:57:36.357Z,13.65
2022-10-31T11:00:19.709Z,11.85
2022-10-31T11:02:49.039Z,13.15
2022-10-31T11:05:22.570Z,12.45
2022-10-31T11:07:49.969Z,13.45
2022-10-31T11:10:20.810Z,14.68
2022-10-31T11:13:05.976Z,13.95
2022-10-31T11:18:03.820Z,12.40
2022-10-31T11:20:38.004Z,15.85
2022-10-31T11:23:19.350Z,14.07
2022-10-31T11:25:51.623Z,15.98
2022-10-31T11:28:19.226Z,14.32
2022-10-31T11:30:48.161Z,17.42
2022-10-31T11:33:27.639Z,12.82
2022-10-31T11:35:58.011Z,15.13
2022-10-31T11:38:28.335Z,13.82
2022-10-31T11:40:57.809Z,12.65
2022-10-31T11:43:25.386Z,13.63
2022-10-31T11:45:52.762Z,12.25
2022-10-31T11:48:22.469Z,12.85
2022-10-31T11:50:59.097Z,11.60
2022-10-31T11:53:29.008Z,13.35
2022-10-31T11:56:08.116Z,12.85
2022-10-31T11:58:35.555Z,12.55
2022-10-31T12:01:02.981Z,13.10
2022-10-31T12:03:53.406Z,14.15
2022-10-31T12:06:26.566Z,12.90
2022-10-31T12:08:53.887Z,11.40
2022-10-31T12:11:40.009Z,11.68
2022-10-31T12:14:13.610Z,17.48
2022-10-31T12:16:46.506Z,11.50
2022-10-31T12:19:22.026Z,12.95
2022-10-31T12:22:06.679Z,12.27
2022-10-31T12:24:40.544Z,12.13
2022-10-31T12:27:22.356Z,11.40
2022-10-31T12:30:10.163Z,11.02
2022-10-31T12:32:44.474Z,14.60
2022-10-31T12:35:17.682Z,14.65
2022-10-31T12:37:54.182Z,14.10
2022-10-31T12:40:24.983Z,14.20
2022-10-31T12:43:06.080Z,13.48
2022-10-31T12:45:35.947Z,15.65
2022-10-31T12:48:06.136Z,15.57
2022-10-31T12:50:35.181Z,13.70
2022-10-31T12:53:21.232Z,15.07
2022-10-31T12:56:27.472Z,16.17
2022-10-31T12:58:59.879Z,12.25
2022-10-31T13:01:27.271Z,14.88
2022-10-31T13:04:16.157Z,14.70
2022-10-31T13:06:50.684Z,15.40
2022-10-31T13:09:23.782Z,17.27
2022-10-31T13:11:55.432Z,14.85
2022-10-31T13:14:28.530Z,21.38
2022-10-31T13:16:56.960Z,16.83
2022-10-31T13:19:29.532Z,14.90
2022-10-31T13:22:01.602Z,18.30
2022-10-31T13:24:34.692Z,15.80
2022-10-31T13:27:04.277Z,17.60
2022-10-31T13:29:38.079Z,18.48
2022-10-31T13:32:12.434Z,20.08
2022-10-31T13:34:45.041Z,19.67
2022-10-31T13:37:31.016Z,18.70
2022-10-31T13:40:03.587Z,23.83
2022-10-31T13:42:53.815Z,24.00
2022-10-31T13:45:24.758Z,22.85
2022-10-31T13:48:02.444Z,24.08
2022-10-31T13:50:37.305Z,17.52
2022-10-31T13:53:34.821Z,19.38
2022-10-31T13:56:07.634Z,22.10
2022-10-31T13:58:35.065Z,25.65
2022-10-31T14:01:08.659Z,25.33
2022-10-31T14:04:04.659Z,30.77
2022-10-31T14:06:40.856Z,30.17
2022-10-31T14:09:29.925Z,35.95
2022-10-31T14:11:59.948Z,27.60
2022-10-31T14:14:30.748Z,28.45
2022-10-31T14:16:59.555Z,24.83
2022-10-31T14:19:28.304Z,26.05
2022-10-31T14:21:59.060Z,24.77
2022-10-31T14:24:26.328Z,25.92
2022-10-31T14:26:56.338Z,27.80
2022-10-31T14:29:25.818Z,28.45
2022-10-31T14:31:53.048Z,26.90
2022-10-31T14:34:23.222Z,24.45
2022-10-31T14:36:54.403Z,25.90
2022-10-31T14:39:27.667Z,29.67
2022-10-31T14:42:03.821Z,26.25
2022-10-31T14:44:41.415Z,23.73
2022-10-31T14:47:11.576Z,25.80
2022-10-31T14:49:57.072Z,27.20
2022-10-31T14:52:28.220Z,28.25
2022-10-31T14:55:02.384Z,29.17
2022-10-31T14:57:37.665Z,23.60
2022-10-31T15:00:18.727Z,31.73
2022-10-31T15:03:04.858Z,33.50
2022-10-31T15:05:33.908Z,29.17
2022-10-31T15:08:01.300Z,27.42
2022-10-31T15:10:31.007Z,31.50
2022-10-31T15:13:09.716Z,27.83
2022-10-31T15:15:40.372Z,31.33
2022-10-31T15:18:08.325Z,26.85
2022-10-31T15:20:45.900Z,30.65
2022-10-31T15:23:20.231Z,31.95
2022-10-31T15:25:49.580Z,26.73
2022-10-31T15:28:22.648Z,27.45
2022-10-31T15:30:54.975Z,29.35
2022-10-31T15:35:59.264Z,27.65
2022-10-31T15:38:30.052Z,27.00
2022-10-31T15:40:57.434Z,33.13
2022-10-31T15:43:27.596Z,29.73
2022-10-31T15:46:02.136Z,30.85
2022-10-31T15:48:32.793Z,27.67
2022-10-31T15:51:00.563Z,35.13
2022-10-31T15:53:29.565Z,31.60
2022-10-31T15:55:59.721Z,29.67
2022-10-31T15:58:28.117Z,29.75
2022-10-31T16:01:02.513Z,31.90
2022-10-31T16:03:34.102Z,29.08
2022-10-31T16:06:05.822Z,31.88
2022-10-31T16:08:33.233Z,33.55
2022-10-31T16:11:02.670Z,32.60
2022-10-31T16:13:35.046Z,33.40
2022-10-31T16:16:29.295Z,35.17
2022-10-31T16:18:51.968Z,33.80
2022-10-31T16:21:25.642Z,31.95
2022-10-31T16:23:58.218Z,32.17
2022-10-31T16:26:26.600Z,31.63
2022-10-31T16:29:03.381Z,34.45
2022-10-31T16:31:37.805Z,32.88
2022-10-31T16:34:06.621Z,32.97
2022-10-31T16:36:39.393Z,29.48
2022-10-31T16:39:06.926Z,33.50
2022-10-31T16:41:36.970Z,33.80
2022-10-31T16:44:05.685Z,32.42
2022-10-31T16:46:32.935Z,31.48
2022-10-31T16:49:00.268Z,36.20
2022-10-31T16:51:27.451Z,34.50
2022-10-31T16:53:54.760Z,35.60
2022-10-31T16:56:25.663Z,31.60
2022-10-31T16:58:53.001Z,30.77
2022-10-31T17:01:20.481Z,30.60
2022-10-31T17:03:47.929Z,27.30
2022-10-31T17:06:15.614Z,31.55
2022-10-31T17:08:43.080Z,32.40
2022-10-31T17:11:15.447Z,29.52
2022-10-31T17:13:42.919Z,29.27
2022-10-31T17:16:10.244Z,29.42
2022-10-31T17:18:37.676Z,26.35
2022-10-31T17:21:06.276Z,24.75
2022-10-31T17:23:34.045Z,28.00
2022-10-31T17:26:01.424Z,23.90
2022-10-31T17:28:28.781Z,27.10
2022-10-31T17:30:58.417Z,24.60
2022-10-31T17:33:25.958Z,25.88
2022-10-31T17:35:53.225Z,27.63
2022-10-31T17:38:20.742Z,28.60
2022-10-31T17:43:20.317Z,24.23
2022-10-31T17:45:47.788Z,19.33
2022-10-31T17:48:15.220Z,22.98
2022-10-31T17:50:42.749Z,21.42
2022-10-31T17:53:10.249Z,25.35
2022-10-31T17:55:37.846Z,21.80
2022-10-31T17:58:05.361Z,24.40
2022-10-31T18:00:32.782Z,21.02
2022-10-31T18:03:00.620Z,21.35
2022-10-31T18:05:28.026Z,24.30
2022-10-31T18:07:57.304Z,17.10
2022-10-31T18:10:27.004Z,23.83
2022-10-31T18:12:54.214Z,21.75
2022-10-31T18:15:21.570Z,19.92
2022-10-31T18:17:48.829Z,18.38
2022-10-31T18:20:16.065Z,20.27
2022-10-31T18:22:43.358Z,19.67
2022-10-31T18:25:10.754Z,19.20
2022-10-31T18:27:38.213Z,18.92
2022-10-31T18:30:08.190Z,19.42
2022-10-31T18:32:36.446Z,21.52
2022-10-31T18:35:03.791Z,22.88
2022-10-31T18:37:31.278Z,21.85
2022-10-31T18:39:58.545Z,16.83
2022-10-31T18:42:26.504Z,20.17
2022-10-31T18:44:53.761Z,21.02
2022-10-31T18:47:21.777Z,19.23
2022-10-31T18:49:48.984Z,18.50
2022-10-31T18:52:16.489Z,19.58
2022-10-31T18:54:44.787Z,15.50
2022-10-31T18:57:12.125Z,16.90
2022-10-31T18:59:39.397Z,17.15
2022-10-31T19:02:07.383Z,20.27
2022-10-31T19:04:34.794Z,17.58
2022-10-31T19:07:02.223Z,15.50
2022-10-31T19:09:30.990Z,19.05
2022-10-31T19:11:58.237Z,14.35
2022-10-31T19:14:25.519Z,19.75
2022-10-31T19:16:53.004Z,15.82
2022-10-31T19:19:21.003Z,20.17
2022-10-31T19:21:48.312Z,15.60
2022-10-31T19:24:15.567Z,12.77
2022-10-31T19:26:42.898Z,19.17
2022-10-31T19:29:10.769Z,15.88
2022-10-31T19:31:38.149Z,18.60
2022-10-31T19:34:05.428Z,17.33
2022-10-31T19:36:32.788Z,14.98
2022-10-31T19:39:00.054Z,15.52
2022-10-31T19:41:28.247Z,16.20
2022-10-31T19:43:55.841Z,15.50
2022-10-31T19:46:40.397Z,15.00
2022-10-31T19:49:11.581Z,16.60
2022-10-31T19:51:38.914Z,11.57
2022-10-31T19:54:06.262Z,16.85
2022-10-31T19:56:33.524Z,12.52
2022-10-31T19:59:02.996Z,15.70
2022-10-31T20:01:30.867Z,13.80
2022-10-31T20:03:58.239Z,14.65
2022-10-31T20:06:26.819Z,14.10
2022-10-31T20:08:55.747Z,16.23
2022-10-31T20:11:23.895Z,13.25
2022-10-31T20:13:51.548Z,15.30
2022-10-31T20:16:19.125Z,15.52
2022-10-31T20:18:47.072Z,10.43
2022-10-31T20:21:15.738Z,16.00
2022-10-31T20:23:43.109Z,15.98
2022-10-31T20:26:12.724Z,10.95
2022-10-31T20:28:43.198Z,12.07
2022-10-31T20:31:12.289Z,16.50
2022-10-31T20:33:39.910Z,19.70
2022-10-31T20:36:08.048Z,13.75
2022-10-31T20:38:37.994Z,12.75
2022-10-31T20:41:06.595Z,12.15
2022-10-31T20:43:34.355Z,12.77
2022-10-31T20:46:02.488Z,11.50
2022-10-31T20:48:30.162Z,13.95
2022-10-31T20:51:01.404Z,15.60
2022-10-31T20:53:29.474Z,17.88
2022-10-31T20:56:09.794Z,13.68
2022-10-31T20:58:37.761Z,15.77
2022-10-31T21:01:05.682Z,13.35
2022-10-31T21:03:36.462Z,12.95
2022-10-31T21:06:05.078Z,16.17
2022-10-31T21:08:32.723Z,17.98
2022-10-31T21:11:00.413Z,14.25
2022-10-31T21:13:31.858Z,18.10
2022-10-31T21:16:04.069Z,10.40
2022-10-31T21:18:31.675Z,12.82
2022-10-31T21:20:58.951Z,9.57
2022-10-31T21:23:26.315Z,12.25
2022-10-31T21:25:53.826Z,10.43
2022-10-31T21:28:21.223Z,13.27
2022-10-31T21:30:49.693Z,17.67
2022-10-31T21:33:17.111Z,13.82
2022-10-31T21:35:51.395Z,10.82
2022-10-31T21:38:19.263Z,10.77
2022-10-31T21:40:46.603Z,13.90
2022-10-31T21:43:13.915Z,9.75
2022-10-31T21:45:41.122Z,12.70
2022-10-31T21:48:08.468Z,14.85
2022-10-31T21:50:36.077Z,13.65
2022-10-31T21:53:23.514Z,13.60
2022-10-31T21:55:50.851Z,9.82
2022-10-31T21:58:18.192Z,9.32
2022-10-31T22:00:47.706Z,12.23
2022-10-31T22:03:18.207Z,16.10
2022-10-31T22:05:46.763Z,10.70
2022-10-31T22:08:14.265Z,8.80
2022-10-31T22:10:41.590Z,12.65
2022-10-31T22:13:08.807Z,11.18
2022-10-31T22:15:36.341Z,11.77
2022-10-31T22:18:03.887Z,14.63
2022-10-31T22:20:31.573Z,11.95
2022-10-31T22:22:58.955Z,12.13
2022-10-31T22:25:26.260Z,12.50
2022-10-31T22:27:53.522Z,11.32
2022-10-31T22:30:21.115Z,10.13
2022-10-31T22:32:48.425Z,11.57
2022-10-31T22:35:16.052Z,10.85
2022-10-31T22:37:43.297Z,15.70
2022-10-31T22:40:10.938Z,10.68
2022-10-31T22:42:38.202Z,9.60
2022-10-31T22:45:05.613Z,10.73
2022-10-31T22:47:32.884Z,11.98
2022-10-31T22:50:00.158Z,10.48
2022-10-31T22:52:27.599Z,9.48
2022-10-31T22:54:58.392Z,12.70
2022-10-31T22:57:26.685Z,10.70
2022-10-31T22:59:54.611Z,10.52
2022-10-31T23:02:22.524Z,12.80
2022-10-31T23:04:49.853Z,12.55
2022-10-31T23:07:23.071Z,10.18
2022-10-31T23:09:54.235Z,8.85
2022-10-31T23:12:40.351Z,12.45
2022-10-31T23:15:07.854Z,8.63
2022-10-31T23:17:35.112Z,15.02
2022-10-31T23:20:02.547Z,9.68
2022-10-31T23:22:29.928Z,10.50
2022-10-31T23:24:57.212Z,11.15
2022-10-31T23:27:25.401Z,10.80
2022-10-31T23:29:54.084Z,10.90
2022-10-31T23:32:25.147Z,8.82
2022-10-31T23:34:54.425Z,11.40
2022-10-31T23:37:23.427Z,13.48
2022-10-31T23:39:50.771Z,10.68
2022-10-31T23:42:18.865Z,14.20
2022-10-31T23:44:46.532Z,10.38
2022-10-31T23:47:13.762Z,8.07
2022-10-31T23:49:41.084Z,8.77
2022-10-31T23:52:08.427Z,10.80
2022-10-31T23:54:35.922Z,10.85
2022-10-31T23:57:03.639Z,9.98
2022-10-31T23:59:31.318Z,11.52
